sensor_id;sensor_type;location;lat;lon;timestamp;pressure;altitude;pressure_sealevel;temperature;humidity
64668;BME280;51077;42.716;23.344;2022-10-16T00:00:39;96000.25;;;12.00;58.35
64668;BME280;51077;42.716;23.344;2022-10-16T00:03:06;96014.03;;;11.95;58.29
64668;BME280;51077;42.716;23.344;2022-10-16T00:05:33;96010.78;;;11.91;58.54
64668;BME280;51077;42.716;23.344;2022-10-16T00:08:02;96009.53;;;11.92;58.43
64668;BME280;51077;42.716;23.344;2022-10-16T00:10:28;96010.03;;;11.96;58.11
64668;BME280;51077;42.716;23.344;2022-10-16T00:12:54;96017.28;;;11.99;58.00
64668;BME280;51077;42.716;23.344;2022-10-16T00:15:19;96021.03;;;11.96;57.96
64668;BME280;51077;42.716;23.344;2022-10-16T00:17:45;96025.78;;;11.95;58.03
64668;BME280;51077;42.716;23.344;2022-10-16T00:20:10;96021.56;;;11.89;57.96
64668;BME280;51077;42.716;23.344;2022-10-16T00:22:36;96023.03;;;11.90;57.97
64668;BME280;51077;42.716;23.344;2022-10-16T00:25:01;96034.78;;;11.90;57.79
64668;BME280;51077;42.716;23.344;2022-10-16T00:27:26;96028.03;;;11.91;58.02
64668;BME280;51077;42.716;23.344;2022-10-16T00:29:52;96028.03;;;11.91;57.75
64668;BME280;51077;42.716;23.344;2022-10-16T00:32:21;96032.28;;;11.87;57.81
64668;BME280;51077;42.716;23.344;2022-10-16T00:34:46;96033.53;;;11.80;57.90
64668;BME280;51077;42.716;23.344;2022-10-16T00:37:12;96042.53;;;11.80;58.07
64668;BME280;51077;42.716;23.344;2022-10-16T00:39:38;96042.03;;;11.76;58.28
64668;BME280;51077;42.716;23.344;2022-10-16T00:42:04;96034.28;;;11.69;58.24
64668;BME280;51077;42.716;23.344;2022-10-16T00:44:43;96029.53;;;11.70;58.16
64668;BME280;51077;42.716;23.344;2022-10-16T00:47:11;96031.03;;;11.65;58.32
64668;BME280;51077;42.716;23.344;2022-10-16T00:49:38;96030.75;;;11.57;58.30
64668;BME280;51077;42.716;23.344;2022-10-16T00:52:05;96033.78;;;11.60;58.22
64668;BME280;51077;42.716;23.344;2022-10-16T00:54:31;96030.75;;;11.57;58.29
64668;BME280;51077;42.716;23.344;2022-10-16T00:57:00;96026.53;;;11.56;58.24
64668;BME280;51077;42.716;23.344;2022-10-16T00:59:29;96024.28;;;11.61;58.34
64668;BME280;51077;42.716;23.344;2022-10-16T01:01:56;96039.00;;;11.57;58.14
64668;BME280;51077;42.716;23.344;2022-10-16T01:04:23;96043.25;;;11.53;58.09
64668;BME280;51077;42.716;23.344;2022-10-16T01:12:26;96046.00;;;11.47;58.25
64668;BME280;51077;42.716;23.344;2022-10-16T01:15:14;96040.75;;;11.44;58.33
64668;BME280;51077;42.716;23.344;2022-10-16T01:20:30;96034.75;;;11.40;58.59
64668;BME280;51077;42.716;23.344;2022-10-16T01:22:59;96028.28;;;11.43;58.24
64668;BME280;51077;42.716;23.344;2022-10-16T01:28:46;96032.00;;;11.34;58.31
64668;BME280;51077;42.716;23.344;2022-10-16T01:31:17;96030.53;;;11.33;58.35
64668;BME280;51077;42.716;23.344;2022-10-16T01:33:47;96027.25;;;11.29;58.54
64668;BME280;51077;42.716;23.344;2022-10-16T01:36:18;96033.75;;;11.20;58.54
64668;BME280;51077;42.716;23.344;2022-10-16T01:38:48;96032.72;;;11.18;58.64
64668;BME280;51077;42.716;23.344;2022-10-16T01:41:19;96031.97;;;11.17;58.43
64668;BME280;51077;42.716;23.344;2022-10-16T01:43:50;96030.47;;;11.11;58.66
64668;BME280;51077;42.716;23.344;2022-10-16T01:46:20;96033.97;;;11.11;58.67
64668;BME280;51077;42.716;23.344;2022-10-16T01:48:48;96041.97;;;11.15;58.57
64668;BME280;51077;42.716;23.344;2022-10-16T01:51:14;96040.72;;;11.16;58.56
64668;BME280;51077;42.716;23.344;2022-10-16T01:53:43;96037.25;;;11.21;58.37
64668;BME280;51077;42.716;23.344;2022-10-16T01:56:12;96046.72;;;11.14;58.61
64668;BME280;51077;42.716;23.344;2022-10-16T01:58:44;96042.47;;;11.13;58.50
64668;BME280;51077;42.716;23.344;2022-10-16T02:01:13;96050.47;;;11.11;58.39
64668;BME280;51077;42.716;23.344;2022-10-16T02:03:42;96054.19;;;11.14;58.30
64668;BME280;51077;42.716;23.344;2022-10-16T02:06:10;96056.19;;;11.07;58.29
64668;BME280;51077;42.716;23.344;2022-10-16T02:08:36;96055.69;;;11.03;58.47
64668;BME280;51077;42.716;23.344;2022-10-16T02:11:04;96056.94;;;11.08;58.50
64668;BME280;51077;42.716;23.344;2022-10-16T02:13:33;96068.91;;;10.99;58.51
64668;BME280;51077;42.716;23.344;2022-10-16T02:16:01;96075.88;;;11.00;58.58
64668;BME280;51077;42.716;23.344;2022-10-16T02:18:26;96068.41;;;11.01;58.50
64668;BME280;51077;42.716;23.344;2022-10-16T02:21:28;96069.94;;;11.02;58.49
64668;BME280;51077;42.716;23.344;2022-10-16T02:26:55;96077.88;;;10.94;58.79
64668;BME280;51077;42.716;23.344;2022-10-16T02:29:25;96079.09;;;10.88;58.95
64668;BME280;51077;42.716;23.344;2022-10-16T02:31:56;96085.31;;;10.82;58.95
64668;BME280;51077;42.716;23.344;2022-10-16T02:34:24;96083.09;;;10.87;58.61
64668;BME280;51077;42.716;23.344;2022-10-16T02:36:52;96079.06;;;10.82;58.86
64668;BME280;51077;42.716;23.344;2022-10-16T02:39:19;96071.81;;;10.79;58.93
64668;BME280;51077;42.716;23.344;2022-10-16T02:41:45;96075.31;;;10.79;58.73
64668;BME280;51077;42.716;23.344;2022-10-16T02:44:11;96082.28;;;10.75;58.82
64668;BME280;51077;42.716;23.344;2022-10-16T02:46:36;96086.03;;;10.72;58.97
64668;BME280;51077;42.716;23.344;2022-10-16T02:49:01;96091.00;;;10.68;58.81
64668;BME280;51077;42.716;23.344;2022-10-16T02:51:27;96091.97;;;10.65;58.86
64668;BME280;51077;42.716;23.344;2022-10-16T02:53:52;96089.47;;;10.61;58.83
64668;BME280;51077;42.716;23.344;2022-10-16T02:56:18;96091.47;;;10.61;58.62
64668;BME280;51077;42.716;23.344;2022-10-16T02:58:43;96092.22;;;10.61;58.62
64668;BME280;51077;42.716;23.344;2022-10-16T03:01:09;96097.94;;;10.57;58.62
64668;BME280;51077;42.716;23.344;2022-10-16T03:03:34;96094.22;;;10.61;58.23
64668;BME280;51077;42.716;23.344;2022-10-16T03:05:59;96099.66;;;10.49;58.49
64668;BME280;51077;42.716;23.344;2022-10-16T03:08:25;96094.13;;;10.44;58.68
64668;BME280;51077;42.716;23.344;2022-10-16T03:10:51;96095.06;;;10.35;58.76
64668;BME280;51077;42.716;23.344;2022-10-16T03:13:17;96093.22;;;10.21;58.99
64668;BME280;51077;42.716;23.344;2022-10-16T03:15:43;96098.38;;;10.13;59.25
64668;BME280;51077;42.716;23.344;2022-10-16T03:18:09;96105.13;;;10.12;59.24
64668;BME280;51077;42.716;23.344;2022-10-16T03:20:34;96103.88;;;10.13;59.42
64668;BME280;51077;42.716;23.344;2022-10-16T03:22:59;96109.34;;;10.13;59.52
64668;BME280;51077;42.716;23.344;2022-10-16T03:25:25;96107.16;;;10.17;59.03
64668;BME280;51077;42.716;23.344;2022-10-16T03:27:50;96111.84;;;10.11;59.10
64668;BME280;51077;42.716;23.344;2022-10-16T03:30:16;96114.84;;;10.13;59.16
64668;BME280;51077;42.716;23.344;2022-10-16T03:32:41;96109.63;;;10.15;58.99
64668;BME280;51077;42.716;23.344;2022-10-16T03:35:07;96112.59;;;10.12;59.01
64668;BME280;51077;42.716;23.344;2022-10-16T03:37:32;96105.88;;;10.13;59.02
64668;BME280;51077;42.716;23.344;2022-10-16T03:39:58;96104.63;;;10.14;58.94
64668;BME280;51077;42.716;23.344;2022-10-16T03:42:24;96101.63;;;10.12;59.00
64668;BME280;51077;42.716;23.344;2022-10-16T03:44:49;96114.53;;;10.05;59.03
64668;BME280;51077;42.716;23.344;2022-10-16T03:47:15;96112.81;;;10.08;59.03
64668;BME280;51077;42.716;23.344;2022-10-16T03:49:40;96105.84;;;10.07;59.12
64668;BME280;51077;42.716;23.344;2022-10-16T03:52:06;96104.06;;;10.04;59.20
64668;BME280;51077;42.716;23.344;2022-10-16T03:54:31;96098.78;;;10.00;59.06
64668;BME280;51077;42.716;23.344;2022-10-16T03:56:57;96101.00;;;9.96;59.46
64668;BME280;51077;42.716;23.344;2022-10-16T03:59:22;96098.25;;;9.96;59.49
64668;BME280;51077;42.716;23.344;2022-10-16T04:01:47;96099.78;;;9.97;59.51
64668;BME280;51077;42.716;23.344;2022-10-16T04:04:13;96098.00;;;9.94;59.61
64668;BME280;51077;42.716;23.344;2022-10-16T04:06:38;96102.53;;;9.97;59.36
64668;BME280;51077;42.716;23.344;2022-10-16T04:09:03;96102.75;;;9.94;59.41
64668;BME280;51077;42.716;23.344;2022-10-16T04:11:29;96097.28;;;9.99;59.33
64668;BME280;51077;42.716;23.344;2022-10-16T04:13:55;96115.19;;;9.89;59.58
64668;BME280;51077;42.716;23.344;2022-10-16T04:16:20;96111.38;;;9.81;59.68
64668;BME280;51077;42.716;23.344;2022-10-16T04:18:46;96108.34;;;9.79;59.75
64668;BME280;51077;42.716;23.344;2022-10-16T04:21:11;96107.13;;;9.80;59.78
64668;BME280;51077;42.716;23.344;2022-10-16T04:23:36;96107.34;;;9.76;59.70
64668;BME280;51077;42.716;23.344;2022-10-16T04:26:02;96112.31;;;9.78;59.77
64668;BME280;51077;42.716;23.344;2022-10-16T04:28:28;96115.81;;;9.78;59.72
64668;BME280;51077;42.716;23.344;2022-10-16T04:30:54;96113.56;;;9.77;59.99
64668;BME280;51077;42.716;23.344;2022-10-16T04:33:19;96111.03;;;9.73;59.85
64668;BME280;51077;42.716;23.344;2022-10-16T04:35:44;96120.75;;;9.74;59.76
64668;BME280;51077;42.716;23.344;2022-10-16T04:38:10;96121.00;;;9.71;59.68
64668;BME280;51077;42.716;23.344;2022-10-16T04:40:35;96123.03;;;9.76;59.86
64668;BME280;51077;42.716;23.344;2022-10-16T04:43:04;96126.00;;;9.72;59.82
64668;BME280;51077;42.716;23.344;2022-10-16T04:45:30;96123.25;;;9.72;59.93
64668;BME280;51077;42.716;23.344;2022-10-16T04:47:59;96126.78;;;9.78;59.65
64668;BME280;51077;42.716;23.344;2022-10-16T04:50:24;96131.56;;;9.83;59.48
64668;BME280;51077;42.716;23.344;2022-10-16T04:52:50;96134.84;;;9.88;59.36
64668;BME280;51077;42.716;23.344;2022-10-16T04:55:15;96138.81;;;9.87;59.46
64668;BME280;51077;42.716;23.344;2022-10-16T04:57:41;96143.06;;;9.88;59.31
64668;BME280;51077;42.716;23.344;2022-10-16T05:00:07;96153.09;;;9.96;59.26
64668;BME280;51077;42.716;23.344;2022-10-16T05:02:33;96146.22;;;10.06;58.80
64668;BME280;51077;42.716;23.344;2022-10-16T05:04:59;96158.50;;;10.17;58.63
64668;BME280;51077;42.716;23.344;2022-10-16T05:07:24;96154.81;;;10.20;58.53
64668;BME280;51077;42.716;23.344;2022-10-16T05:09:50;96156.13;;;10.24;58.47
64668;BME280;51077;42.716;23.344;2022-10-16T05:12:15;96153.78;;;10.49;57.87
64668;BME280;51077;42.716;23.344;2022-10-16T05:14:41;96157.03;;;10.53;57.77
64668;BME280;51077;42.716;23.344;2022-10-16T05:17:06;96155.88;;;10.65;57.61
64668;BME280;51077;42.716;23.344;2022-10-16T05:19:32;96165.22;;;10.85;56.76
64668;BME280;51077;42.716;23.344;2022-10-16T05:21:57;96163.56;;;11.04;56.68
64668;BME280;51077;42.716;23.344;2022-10-16T05:24:23;96169.56;;;11.08;56.52
64668;BME280;51077;42.716;23.344;2022-10-16T05:26:49;96166.38;;;11.15;56.46
64668;BME280;51077;42.716;23.344;2022-10-16T05:29:14;96163.41;;;11.24;56.15
64668;BME280;51077;42.716;23.344;2022-10-16T05:31:40;96164.22;;;11.47;55.59
64668;BME280;51077;42.716;23.344;2022-10-16T05:34:05;96165.47;;;11.57;55.54
64668;BME280;51077;42.716;23.344;2022-10-16T05:36:31;96163.56;;;11.80;55.00
64668;BME280;51077;42.716;23.344;2022-10-16T05:38:56;96172.09;;;12.05;54.44
64668;BME280;51077;42.716;23.344;2022-10-16T05:41:22;96173.84;;;12.25;53.84
64668;BME280;51077;42.716;23.344;2022-10-16T05:43:50;96179.34;;;12.42;53.53
64668;BME280;51077;42.716;23.344;2022-10-16T05:46:16;96170.81;;;12.56;53.30
64668;BME280;51077;42.716;23.344;2022-10-16T05:48:42;96174.53;;;12.81;52.71
64668;BME280;51077;42.716;23.344;2022-10-16T05:51:10;96185.25;;;13.02;52.40
64668;BME280;51077;42.716;23.344;2022-10-16T05:53:37;96192.19;;;13.31;51.67
64668;BME280;51077;42.716;23.344;2022-10-16T05:56:04;96191.34;;;13.58;51.13
64668;BME280;51077;42.716;23.344;2022-10-16T05:58:32;96189.47;;;13.78;50.87
64668;BME280;51077;42.716;23.344;2022-10-16T06:01:01;96199.66;;;13.94;50.45
64668;BME280;51077;42.716;23.344;2022-10-16T06:03:27;96202.25;;;14.17;49.83
64668;BME280;51077;42.716;23.344;2022-10-16T06:05:53;96203.31;;;14.44;49.40
64668;BME280;51077;42.716;23.344;2022-10-16T06:08:20;96212.88;;;14.73;48.70
64668;BME280;51077;42.716;23.344;2022-10-16T06:10:47;96204.59;;;14.97;48.06
64668;BME280;51077;42.716;23.344;2022-10-16T06:13:13;96217.66;;;15.21;47.63
64668;BME280;51077;42.716;23.344;2022-10-16T06:15:41;96221.00;;;15.39;47.23
64668;BME280;51077;42.716;23.344;2022-10-16T06:18:08;96225.59;;;15.55;46.79
64668;BME280;51077;42.716;23.344;2022-10-16T06:20:34;96220.75;;;15.80;46.36
64668;BME280;51077;42.716;23.344;2022-10-16T06:22:59;96226.00;;;16.02;45.86
64668;BME280;51077;42.716;23.344;2022-10-16T06:25:24;96219.44;;;16.19;45.57
64668;BME280;51077;42.716;23.344;2022-10-16T06:27:50;96229.88;;;16.45;45.07
64668;BME280;51077;42.716;23.344;2022-10-16T06:30:15;96229.00;;;16.69;44.66
64668;BME280;51077;42.716;23.344;2022-10-16T06:32:41;96221.63;;;16.90;44.31
64668;BME280;51077;42.716;23.344;2022-10-16T06:35:06;96229.75;;;17.15;43.88
64668;BME280;51077;42.716;23.344;2022-10-16T06:37:32;96228.91;;;17.33;43.22
64668;BME280;51077;42.716;23.344;2022-10-16T06:39:57;96229.63;;;17.60;42.83
64668;BME280;51077;42.716;23.344;2022-10-16T06:42:23;96239.13;;;17.78;42.52
64668;BME280;51077;42.716;23.344;2022-10-16T06:44:48;96236.44;;;17.99;42.02
64668;BME280;51077;42.716;23.344;2022-10-16T06:47:13;96239.00;;;18.31;41.98
64668;BME280;51077;42.716;23.344;2022-10-16T06:49:39;96248.28;;;18.54;41.39
64668;BME280;51077;42.716;23.344;2022-10-16T06:52:04;96255.25;;;18.82;40.77
64668;BME280;51077;42.716;23.344;2022-10-16T06:54:30;96254.88;;;19.06;40.65
64668;BME280;51077;42.716;23.344;2022-10-16T06:56:55;96255.06;;;19.29;39.88
64668;BME280;51077;42.716;23.344;2022-10-16T06:59:21;96259.06;;;19.49;39.72
64668;BME280;51077;42.716;23.344;2022-10-16T07:01:47;96260.69;;;19.66;39.42
64668;BME280;51077;42.716;23.344;2022-10-16T07:04:13;96262.47;;;19.92;39.25
64668;BME280;51077;42.716;23.344;2022-10-16T07:06:39;96259.22;;;20.08;38.44
64668;BME280;51077;42.716;23.344;2022-10-16T07:09:09;96267.28;;;20.35;38.31
64668;BME280;51077;42.716;23.344;2022-10-16T07:11:36;96267.34;;;20.58;38.01
64668;BME280;51077;42.716;23.344;2022-10-16T07:14:02;96263.47;;;20.84;37.47
64668;BME280;51077;42.716;23.344;2022-10-16T07:16:30;96269.25;;;21.09;37.30
64668;BME280;51077;42.716;23.344;2022-10-16T07:18:57;96267.94;;;21.48;36.43
64668;BME280;51077;42.716;23.344;2022-10-16T07:21:25;96265.66;;;21.70;36.10
64668;BME280;51077;42.716;23.344;2022-10-16T07:23:55;96266.53;;;21.88;35.31
64668;BME280;51077;42.716;23.344;2022-10-16T07:26:22;96264.03;;;22.15;35.39
64668;BME280;51077;42.716;23.344;2022-10-16T07:28:48;96264.50;;;22.36;35.09
64668;BME280;51077;42.716;23.344;2022-10-16T07:31:15;96264.56;;;22.53;34.47
64668;BME280;51077;42.716;23.344;2022-10-16T07:33:42;96269.47;;;22.78;34.38
64668;BME280;51077;42.716;23.344;2022-10-16T07:36:09;96271.97;;;22.99;33.91
64668;BME280;51077;42.716;23.344;2022-10-16T07:38:35;96267.16;;;23.17;33.88
64668;BME280;51077;42.716;23.344;2022-10-16T07:41:12;96264.22;;;23.49;33.34
64668;BME280;51077;42.716;23.344;2022-10-16T07:43:37;96271.28;;;23.75;32.98
64668;BME280;51077;42.716;23.344;2022-10-16T07:46:03;96269.53;;;23.97;32.79
64668;BME280;51077;42.716;23.344;2022-10-16T07:48:31;96263.34;;;24.16;32.46
64668;BME280;51077;42.716;23.344;2022-10-16T07:50:58;96270.63;;;24.29;32.16
64668;BME280;51077;42.716;23.344;2022-10-16T07:53:24;96267.72;;;24.54;31.73
64668;BME280;51077;42.716;23.344;2022-10-16T07:55:49;96270.19;;;24.77;31.54
64668;BME280;51077;42.716;23.344;2022-10-16T07:58:15;96270.81;;;24.85;31.42
64668;BME280;51077;42.716;23.344;2022-10-16T08:00:40;96274.50;;;25.15;31.46
64668;BME280;51077;42.716;23.344;2022-10-16T08:03:05;96272.50;;;25.35;30.77
64668;BME280;51077;42.716;23.344;2022-10-16T08:05:32;96276.19;;;25.37;30.86
64668;BME280;51077;42.716;23.344;2022-10-16T08:07:58;96277.72;;;25.57;30.08
64668;BME280;51077;42.716;23.344;2022-10-16T08:10:25;96275.38;;;25.73;30.18
64668;BME280;51077;42.716;23.344;2022-10-16T08:12:51;96270.81;;;25.97;29.64
64668;BME280;51077;42.716;23.344;2022-10-16T08:15:17;96272.88;;;26.16;29.37
64668;BME280;51077;42.716;23.344;2022-10-16T08:17:43;96268.13;;;26.28;29.10
64668;BME280;51077;42.716;23.344;2022-10-16T08:20:09;96268.41;;;26.52;28.99
64668;BME280;51077;42.716;23.344;2022-10-16T08:22:35;96266.41;;;26.74;28.23
64668;BME280;51077;42.716;23.344;2022-10-16T08:25:00;96271.56;;;26.87;27.96
64668;BME280;51077;42.716;23.344;2022-10-16T08:27:31;96260.84;;;26.95;27.76
64668;BME280;51077;42.716;23.344;2022-10-16T08:29:57;96262.88;;;27.14;27.94
64668;BME280;51077;42.716;23.344;2022-10-16T08:32:22;96257.19;;;27.24;27.77
64668;BME280;51077;42.716;23.344;2022-10-16T08:34:48;96260.63;;;27.44;27.17
64668;BME280;51077;42.716;23.344;2022-10-16T08:37:13;96257.59;;;27.51;27.29
64668;BME280;51077;42.716;23.344;2022-10-16T08:39:39;96250.94;;;27.78;27.13
64668;BME280;51077;42.716;23.344;2022-10-16T08:42:22;96257.88;;;27.98;26.75
64668;BME280;51077;42.716;23.344;2022-10-16T08:50:31;96259.53;;;28.46;25.87
64668;BME280;51077;42.716;23.344;2022-10-16T08:52:57;96252.44;;;28.69;25.55
64668;BME280;51077;42.716;23.344;2022-10-16T08:55:39;96260.09;;;28.90;25.10
64668;BME280;51077;42.716;23.344;2022-10-16T08:58:14;96255.69;;;28.87;24.73
64668;BME280;51077;42.716;23.344;2022-10-16T09:00:41;96259.22;;;28.75;24.46
64668;BME280;51077;42.716;23.344;2022-10-16T09:03:42;96262.06;;;28.87;24.36
64668;BME280;51077;42.716;23.344;2022-10-16T09:06:28;96265.16;;;29.03;23.88
64668;BME280;51077;42.716;23.344;2022-10-16T09:16:36;96260.09;;;29.48;23.36
64668;BME280;51077;42.716;23.344;2022-10-16T09:19:14;96246.91;;;29.65;23.05
64668;BME280;51077;42.716;23.344;2022-10-16T09:21:44;96256.09;;;29.89;22.94
64668;BME280;51077;42.716;23.344;2022-10-16T09:24:20;96250.63;;;30.04;22.81
64668;BME280;51077;42.716;23.344;2022-10-16T09:26:47;96253.13;;;30.24;22.93
64668;BME280;51077;42.716;23.344;2022-10-16T09:29:14;96253.91;;;30.38;22.45
64668;BME280;51077;42.716;23.344;2022-10-16T09:31:40;96247.19;;;30.57;22.40
64668;BME280;51077;42.716;23.344;2022-10-16T09:36:58;96252.84;;;30.57;21.90
64668;BME280;51077;42.716;23.344;2022-10-16T09:39:24;96253.44;;;30.81;21.81
64668;BME280;51077;42.716;23.344;2022-10-16T09:41:51;96249.00;;;30.78;21.54
64668;BME280;51077;42.716;23.344;2022-10-16T09:44:24;96257.13;;;30.58;21.34
64668;BME280;51077;42.716;23.344;2022-10-16T09:47:43;96253.78;;;30.62;21.80
64668;BME280;51077;42.716;23.344;2022-10-16T09:50:05;96231.91;;;30.76;21.81
64668;BME280;51077;42.716;23.344;2022-10-16T09:52:39;96238.16;;;31.00;21.22
64668;BME280;51077;42.716;23.344;2022-10-16T09:55:17;96234.38;;;31.23;21.26
64668;BME280;51077;42.716;23.344;2022-10-16T09:57:50;96236.06;;;31.42;20.71
64668;BME280;51077;42.716;23.344;2022-10-16T10:00:16;96227.31;;;31.51;21.09
64668;BME280;51077;42.716;23.344;2022-10-16T10:02:43;96235.72;;;31.63;21.19
64668;BME280;51077;42.716;23.344;2022-10-16T10:05:20;96227.81;;;31.75;21.01
64668;BME280;51077;42.716;23.344;2022-10-16T10:07:54;96217.81;;;31.88;20.84
64668;BME280;51077;42.716;23.344;2022-10-16T10:10:23;96219.25;;;32.03;20.61
64668;BME280;51077;42.716;23.344;2022-10-16T10:12:49;96217.38;;;32.23;20.26
64668;BME280;51077;42.716;23.344;2022-10-16T10:15:15;96211.63;;;32.37;20.39
64668;BME280;51077;42.716;23.344;2022-10-16T10:17:49;96215.88;;;32.52;19.86
64668;BME280;51077;42.716;23.344;2022-10-16T10:22:53;96214.16;;;32.61;20.05
64668;BME280;51077;42.716;23.344;2022-10-16T10:38:30;96192.47;;;33.33;19.38
64668;BME280;51077;42.716;23.344;2022-10-16T10:46:32;96183.06;;;33.62;19.24
64668;BME280;51077;42.716;23.344;2022-10-16T10:49:36;96179.97;;;33.73;19.05
64668;BME280;51077;42.716;23.344;2022-10-16T10:54:56;96180.66;;;34.08;18.90
64668;BME280;51077;42.716;23.344;2022-10-16T10:57:29;96180.13;;;34.13;18.67
64668;BME280;51077;42.716;23.344;2022-10-16T11:00:06;96168.66;;;34.29;18.53
64668;BME280;51077;42.716;23.344;2022-10-16T11:02:40;96171.16;;;34.39;18.41
64668;BME280;51077;42.716;23.344;2022-10-16T11:05:44;96162.94;;;34.29;18.41
64668;BME280;51077;42.716;23.344;2022-10-16T11:08:21;96161.88;;;33.49;22.63
64668;BME280;51077;42.716;23.344;2022-10-16T11:11:03;96167.56;;;32.84;24.02
64668;BME280;51077;42.716;23.344;2022-10-16T11:13:44;96157.78;;;32.55;23.71
64668;BME280;51077;42.716;23.344;2022-10-16T11:16:27;96154.44;;;32.29;24.82
64668;BME280;51077;42.716;23.344;2022-10-16T11:19:25;96159.66;;;32.19;24.27
64668;BME280;51077;42.716;23.344;2022-10-16T11:22:04;96152.78;;;32.24;23.26
64668;BME280;51077;42.716;23.344;2022-10-16T11:24:48;96146.41;;;32.71;22.46
64668;BME280;51077;42.716;23.344;2022-10-16T11:27:21;96144.06;;;33.15;21.52
64668;BME280;51077;42.716;23.344;2022-10-16T11:30:00;96144.47;;;33.25;20.85
64668;BME280;51077;42.716;23.344;2022-10-16T11:32:38;96142.75;;;33.51;19.89
64668;BME280;51077;42.716;23.344;2022-10-16T11:35:17;96142.22;;;33.73;19.65
64668;BME280;51077;42.716;23.344;2022-10-16T11:37:46;96144.81;;;33.85;19.47
64668;BME280;51077;42.716;23.344;2022-10-16T11:40:35;96149.66;;;33.98;18.99
64668;BME280;51077;42.716;23.344;2022-10-16T11:43:13;96143.53;;;34.06;18.80
64668;BME280;51077;42.716;23.344;2022-10-16T11:45:53;96140.75;;;34.08;18.98
64668;BME280;51077;42.716;23.344;2022-10-16T11:48:36;96145.22;;;34.13;18.51
64668;BME280;51077;42.716;23.344;2022-10-16T11:51:38;96148.56;;;34.25;18.70
64668;BME280;51077;42.716;23.344;2022-10-16T11:57:02;96150.16;;;34.30;17.98
64668;BME280;51077;42.716;23.344;2022-10-16T12:08:12;96139.47;;;34.11;18.24
64668;BME280;51077;42.716;23.344;2022-10-16T12:10:41;96145.22;;;34.13;18.01
64668;BME280;51077;42.716;23.344;2022-10-16T12:13:29;96142.84;;;34.25;17.78
64668;BME280;51077;42.716;23.344;2022-10-16T12:18:43;96142.50;;;34.35;17.48
64668;BME280;51077;42.716;23.344;2022-10-16T12:21:10;96140.72;;;34.25;17.30
64668;BME280;51077;42.716;23.344;2022-10-16T12:23:50;96141.22;;;34.20;17.31
64668;BME280;51077;42.716;23.344;2022-10-16T12:26:32;96138.06;;;34.12;17.61
64668;BME280;51077;42.716;23.344;2022-10-16T12:29:13;96134.50;;;34.11;17.39
64668;BME280;51077;42.716;23.344;2022-10-16T12:31:45;96133.50;;;34.05;17.39
64668;BME280;51077;42.716;23.344;2022-10-16T12:36:49;96138.53;;;33.19;22.92
64668;BME280;51077;42.716;23.344;2022-10-16T12:39:27;96141.78;;;32.32;26.51
64668;BME280;51077;42.716;23.344;2022-10-16T12:42:04;96139.09;;;31.75;25.53
64668;BME280;51077;42.716;23.344;2022-10-16T12:44:34;96133.84;;;31.40;25.60
64668;BME280;51077;42.716;23.344;2022-10-16T12:47:00;96141.78;;;31.57;25.40
64668;BME280;51077;42.716;23.344;2022-10-16T12:49:36;96135.28;;;31.84;24.30
64668;BME280;51077;42.716;23.344;2022-10-16T12:52:03;96140.44;;;31.88;22.59
64668;BME280;51077;42.716;23.344;2022-10-16T12:54:37;96144.22;;;32.08;21.73
64668;BME280;51077;42.716;23.344;2022-10-16T13:10:31;96149.28;;;32.10;19.44
64668;BME280;51077;42.716;23.344;2022-10-16T13:18:55;96142.81;;;31.93;19.31
64668;BME280;51077;42.716;23.344;2022-10-16T13:21:35;96142.63;;;31.89;19.77
64668;BME280;51077;42.716;23.344;2022-10-16T13:29:22;96147.59;;;31.75;19.04
64668;BME280;51077;42.716;23.344;2022-10-16T13:31:48;96147.31;;;31.69;18.62
64668;BME280;51077;42.716;23.344;2022-10-16T13:34:16;96142.50;;;31.58;18.54
64668;BME280;51077;42.716;23.344;2022-10-16T13:36:45;96141.06;;;31.43;18.51
64668;BME280;51077;42.716;23.344;2022-10-16T13:39:22;96152.31;;;31.27;18.68
64668;BME280;51077;42.716;23.344;2022-10-16T13:42:23;96152.88;;;31.10;18.39
64668;BME280;51077;42.716;23.344;2022-10-16T13:44:51;96153.72;;;30.98;18.80
64668;BME280;51077;42.716;23.344;2022-10-16T13:47:23;96158.22;;;30.90;18.61
64668;BME280;51077;42.716;23.344;2022-10-16T13:50:09;96154.03;;;30.77;19.07
64668;BME280;51077;42.716;23.344;2022-10-16T13:52:36;96156.09;;;30.63;18.83
64668;BME280;51077;42.716;23.344;2022-10-16T13:55:04;96157.06;;;30.02;25.87
64668;BME280;51077;42.716;23.344;2022-10-16T13:57:29;96153.13;;;29.45;28.25
64668;BME280;51077;42.716;23.344;2022-10-16T13:59:55;96158.94;;;29.23;29.73
64668;BME280;51077;42.716;23.344;2022-10-16T14:02:31;96156.03;;;29.21;27.29
64668;BME280;51077;42.716;23.344;2022-10-16T14:05:03;96161.06;;;29.11;27.31
64668;BME280;51077;42.716;23.344;2022-10-16T14:07:31;96164.03;;;29.01;27.70
64668;BME280;51077;42.716;23.344;2022-10-16T14:10:05;96165.38;;;28.89;26.50
64668;BME280;51077;42.716;23.344;2022-10-16T14:12:31;96160.81;;;28.72;27.20
64668;BME280;51077;42.716;23.344;2022-10-16T14:14:58;96165.63;;;28.58;27.43
64668;BME280;51077;42.716;23.344;2022-10-16T14:17:29;96167.59;;;28.43;29.18
64668;BME280;51077;42.716;23.344;2022-10-16T14:19:58;96162.22;;;28.14;28.99
64668;BME280;51077;42.716;23.344;2022-10-16T14:24:55;96173.31;;;27.67;30.22
64668;BME280;51077;42.716;23.344;2022-10-16T14:27:35;96173.00;;;27.51;28.71
64668;BME280;51077;42.716;23.344;2022-10-16T14:32:33;96173.00;;;27.09;27.46
64668;BME280;51077;42.716;23.344;2022-10-16T14:34:58;96176.34;;;26.95;29.46
64668;BME280;51077;42.716;23.344;2022-10-16T14:37:28;96174.06;;;26.72;29.28
64668;BME280;51077;42.716;23.344;2022-10-16T14:39:55;96181.59;;;26.48;29.15
64668;BME280;51077;42.716;23.344;2022-10-16T14:42:23;96187.97;;;26.29;31.13